sensor_id;sensor_type;location;lat;lon;timestamp;pressure;altitude;pressure_sealevel;temperature;humidity
21566;BME280;10943;48.738;9.320;2022-11-22T00:01:04;96886.13;;;9.58;68.40
21566;BME280;10943;48.738;9.320;2022-11-22T00:03:32;96881.72;;;9.47;68.09
21566;BME280;10943;48.738;9.320;2022-11-22T00:05:59;96878.97;;;9.47;69.12
21566;BME280;10943;48.738;9.320;2022-11-22T00:08:26;96881.09;;;9.70;68.70
21566;BME280;10943;48.738;9.320;2022-11-22T00:10:54;96877.28;;;9.51;68.86
21566;BME280;10943;48.738;9.320;2022-11-22T00:13:21;96866.84;;;9.32;69.02
21566;BME280;10943;48.738;9.320;2022-11-22T00:16:03;96864.44;;;9.05;69.34
21566;BME280;10943;48.738;9.320;2022-11-22T00:18:30;96863.63;;;9.15;70.81
21566;BME280;10943;48.738;9.320;2022-11-22T00:21:07;96864.72;;;9.14;71.27
21566;BME280;10943;48.738;9.320;2022-11-22T00:23:34;96864.03;;;9.48;70.33
21566;BME280;10943;48.738;9.320;2022-11-22T00:26:02;96851.91;;;9.38;69.79
21566;BME280;10943;48.738;9.320;2022-11-22T00:28:29;96849.91;;;9.49;69.88
21566;BME280;10943;48.738;9.320;2022-11-22T00:30:56;96848.00;;;9.50;70.30
21566;BME280;10943;48.738;9.320;2022-11-22T00:33:23;96849.59;;;9.61;69.85
21566;BME280;10943;48.738;9.320;2022-11-22T00:35:51;96849.81;;;9.70;69.37
21566;BME280;10943;48.738;9.320;2022-11-22T00:38:18;96850.16;;;9.58;69.64
21566;BME280;10943;48.738;9.320;2022-11-22T00:40:45;96853.94;;;9.78;69.50
21566;BME280;10943;48.738;9.320;2022-11-22T00:43:12;96850.78;;;9.45;68.44
21566;BME280;10943;48.738;9.320;2022-11-22T00:45:40;96850.31;;;9.22;70.45
21566;BME280;10943;48.738;9.320;2022-11-22T00:48:08;96860.13;;;9.59;70.04
21566;BME280;10943;48.738;9.320;2022-11-22T00:50:35;96858.38;;;9.73;69.73
21566;BME280;10943;48.738;9.320;2022-11-22T00:53:08;96860.22;;;9.88;68.93
21566;BME280;10943;48.738;9.320;2022-11-22T00:55:36;96863.91;;;9.79;68.79
21566;BME280;10943;48.738;9.320;2022-11-22T00:58:03;96867.44;;;9.24;69.31
21566;BME280;10943;48.738;9.320;2022-11-22T01:00:30;96870.25;;;9.08;70.31
21566;BME280;10943;48.738;9.320;2022-11-22T01:02:57;96883.44;;;9.32;70.29
21566;BME280;10943;48.738;9.320;2022-11-22T01:05:25;96891.59;;;8.72;70.87
21566;BME280;10943;48.738;9.320;2022-11-22T01:07:52;96899.28;;;9.06;71.67
21566;BME280;10943;48.738;9.320;2022-11-22T01:10:20;96894.06;;;8.99;71.20
21566;BME280;10943;48.738;9.320;2022-11-22T01:12:48;96900.94;;;9.17;71.01
21566;BME280;10943;48.738;9.320;2022-11-22T01:15:15;96910.16;;;9.68;69.14
21566;BME280;10943;48.738;9.320;2022-11-22T01:17:42;96906.56;;;9.62;70.11
21566;BME280;10943;48.738;9.320;2022-11-22T01:20:10;96909.31;;;9.67;70.21
21566;BME280;10943;48.738;9.320;2022-11-22T01:22:39;96914.56;;;9.69;70.44
21566;BME280;10943;48.738;9.320;2022-11-22T01:25:07;96917.50;;;9.93;69.57
21566;BME280;10943;48.738;9.320;2022-11-22T01:27:34;96911.97;;;9.93;69.53
21566;BME280;10943;48.738;9.320;2022-11-22T01:30:02;96906.63;;;10.07;68.71
21566;BME280;10943;48.738;9.320;2022-11-22T01:32:30;96913.63;;;9.94;69.29
21566;BME280;10943;48.738;9.320;2022-11-22T01:34:58;96916.50;;;9.68;70.21
21566;BME280;10943;48.738;9.320;2022-11-22T01:37:25;96920.28;;;9.88;70.13
21566;BME280;10943;48.738;9.320;2022-11-22T01:39:52;96922.47;;;9.96;69.97
21566;BME280;10943;48.738;9.320;2022-11-22T01:42:19;96918.56;;;10.02;70.00
21566;BME280;10943;48.738;9.320;2022-11-22T01:44:47;96916.63;;;10.03;70.21
21566;BME280;10943;48.738;9.320;2022-11-22T01:47:24;96908.47;;;10.22;69.76
21566;BME280;10943;48.738;9.320;2022-11-22T01:49:56;96913.69;;;10.29;69.06
21566;BME280;10943;48.738;9.320;2022-11-22T01:52:31;96902.03;;;10.37;68.67
21566;BME280;10943;48.738;9.320;2022-11-22T01:55:08;96898.66;;;10.45;66.79
21566;BME280;10943;48.738;9.320;2022-11-22T01:57:40;96897.25;;;10.48;66.38
21566;BME280;10943;48.738;9.320;2022-11-22T02:00:14;96909.03;;;10.24;67.90
21566;BME280;10943;48.738;9.320;2022-11-22T02:02:56;96913.84;;;10.08;69.30
21566;BME280;10943;48.738;9.320;2022-11-22T02:05:31;96912.94;;;10.18;68.87
21566;BME280;10943;48.738;9.320;2022-11-22T02:08:49;96918.53;;;10.07;68.54
21566;BME280;10943;48.738;9.320;2022-11-22T02:11:27;96930.69;;;10.12;68.71
21566;BME280;10943;48.738;9.320;2022-11-22T02:14:01;96919.38;;;10.08;69.26
21566;BME280;10943;48.738;9.320;2022-11-22T02:16:30;96918.50;;;10.13;68.21
21566;BME280;10943;48.738;9.320;2022-11-22T02:18:57;96928.00;;;9.96;69.58
21566;BME280;10943;48.738;9.320;2022-11-22T02:21:25;96924.66;;;10.04;69.72
21566;BME280;10943;48.738;9.320;2022-11-22T02:24:04;96924.31;;;10.16;69.68
21566;BME280;10943;48.738;9.320;2022-11-22T02:26:36;96929.81;;;10.21;69.24
21566;BME280;10943;48.738;9.320;2022-11-22T02:29:06;96935.56;;;10.35;69.08
21566;BME280;10943;48.738;9.320;2022-11-22T02:31:44;96946.84;;;10.44;68.82
21566;BME280;10943;48.738;9.320;2022-11-22T02:34:13;96943.59;;;10.37;68.77
21566;BME280;10943;48.738;9.320;2022-11-22T02:36:48;96942.19;;;10.39;69.34
21566;BME280;10943;48.738;9.320;2022-11-22T02:39:25;96949.66;;;10.34;68.97
21566;BME280;10943;48.738;9.320;2022-11-22T02:41:56;96951.13;;;10.21;69.45
21566;BME280;10943;48.738;9.320;2022-11-22T02:44:23;96941.75;;;10.12;69.57
21566;BME280;10943;48.738;9.320;2022-11-22T02:46:54;96939.16;;;10.31;69.43
21566;BME280;10943;48.738;9.320;2022-11-22T02:49:24;96939.91;;;10.47;68.58
21566;BME280;10943;48.738;9.320;2022-11-22T02:51:52;96931.69;;;10.26;67.65
21566;BME280;10943;48.738;9.320;2022-11-22T02:54:20;96941.34;;;9.84;69.38
21566;BME280;10943;48.738;9.320;2022-11-22T02:56:47;96936.00;;;10.08;69.32
21566;BME280;10943;48.738;9.320;2022-11-22T02:59:15;96940.00;;;10.26;69.44
21566;BME280;10943;48.738;9.320;2022-11-22T03:01:45;96942.50;;;10.33;69.36
21566;BME280;10943;48.738;9.320;2022-11-22T03:04:13;96944.69;;;10.36;68.99
21566;BME280;10943;48.738;9.320;2022-11-22T03:06:56;96952.19;;;10.35;69.35
21566;BME280;10943;48.738;9.320;2022-11-22T03:09:26;96949.66;;;10.39;69.09
21566;BME280;10943;48.738;9.320;2022-11-22T03:11:54;96956.34;;;10.72;66.49
21566;BME280;10943;48.738;9.320;2022-11-22T03:14:21;96957.34;;;10.52;67.30
21566;BME280;10943;48.738;9.320;2022-11-22T03:16:49;96966.09;;;10.20;68.45
21566;BME280;10943;48.738;9.320;2022-11-22T03:19:18;96965.06;;;10.05;68.78
21566;BME280;10943;48.738;9.320;2022-11-22T03:21:46;96963.75;;;9.93;68.94
21566;BME280;10943;48.738;9.320;2022-11-22T03:24:13;96959.84;;;9.94;68.36
21566;BME280;10943;48.738;9.320;2022-11-22T03:26:46;96962.41;;;9.80;69.17
21566;BME280;10943;48.738;9.320;2022-11-22T03:29:16;96965.66;;;9.92;69.07
21566;BME280;10943;48.738;9.320;2022-11-22T03:31:44;96965.22;;;9.64;70.31
21566;BME280;10943;48.738;9.320;2022-11-22T03:34:12;96972.13;;;9.72;70.16
21566;BME280;10943;48.738;9.320;2022-11-22T03:36:39;96970.09;;;9.93;69.30
21566;BME280;10943;48.738;9.320;2022-11-22T03:39:07;96977.41;;;9.58;69.48
21566;BME280;10943;48.738;9.320;2022-11-22T03:41:34;96979.13;;;9.44;70.85
21566;BME280;10943;48.738;9.320;2022-11-22T03:44:02;96968.53;;;9.66;70.87
21566;BME280;10943;48.738;9.320;2022-11-22T03:46:30;96966.78;;;9.86;70.37
21566;BME280;10943;48.738;9.320;2022-11-22T03:48:57;96966.78;;;9.86;69.51
21566;BME280;10943;48.738;9.320;2022-11-22T03:51:26;96962.44;;;9.69;70.24
21566;BME280;10943;48.738;9.320;2022-11-22T03:53:53;96967.34;;;9.88;70.47
21566;BME280;10943;48.738;9.320;2022-11-22T03:56:21;96961.47;;;10.00;70.00
21566;BME280;10943;48.738;9.320;2022-11-22T03:58:49;96968.44;;;9.92;69.85
21566;BME280;10943;48.738;9.320;2022-11-22T04:01:16;96976.72;;;9.97;70.13
21566;BME280;10943;48.738;9.320;2022-11-22T04:03:43;96968.41;;;9.97;69.82
21566;BME280;10943;48.738;9.320;2022-11-22T04:06:11;96968.75;;;9.80;70.27
21566;BME280;10943;48.738;9.320;2022-11-22T04:08:38;96962.44;;;9.69;69.41
21566;BME280;10943;48.738;9.320;2022-11-22T04:11:05;96965.22;;;9.64;70.20
21566;BME280;10943;48.738;9.320;2022-11-22T04:13:34;96969.69;;;9.60;70.14
21566;BME280;10943;48.738;9.320;2022-11-22T04:16:20;96982.41;;;9.51;70.03
21566;BME280;10943;48.738;9.320;2022-11-22T04:18:47;96971.09;;;9.42;69.88
21566;BME280;10943;48.738;9.320;2022-11-22T04:21:14;96977.47;;;9.27;70.34
21566;BME280;10943;48.738;9.320;2022-11-22T04:24:05;96974.69;;;9.32;70.02
21566;BME280;10943;48.738;9.320;2022-11-22T04:26:56;96974.44;;;9.23;70.83
21566;BME280;10943;48.738;9.320;2022-11-22T04:29:24;96983.00;;;9.17;70.53
21566;BME280;10943;48.738;9.320;2022-11-22T04:31:51;96981.31;;;9.41;69.39
21566;BME280;10943;48.738;9.320;2022-11-22T04:34:38;96980.81;;;9.14;69.92
21566;BME280;10943;48.738;9.320;2022-11-22T04:37:05;96979.97;;;9.08;70.34
21566;BME280;10943;48.738;9.320;2022-11-22T04:39:33;96984.09;;;9.21;70.06
21566;BME280;10943;48.738;9.320;2022-11-22T04:42:01;96984.09;;;9.21;69.69
21566;BME280;10943;48.738;9.320;2022-11-22T04:44:47;96988.53;;;8.70;69.87
21566;BME280;10943;48.738;9.320;2022-11-22T04:47:17;96987.72;;;8.85;71.03
21566;BME280;10943;48.738;9.320;2022-11-22T04:50:07;96978.34;;;8.91;70.23
21566;BME280;10943;48.738;9.320;2022-11-22T04:52:59;96968.09;;;8.97;70.52
21566;BME280;10943;48.738;9.320;2022-11-22T04:55:52;96972.53;;;8.93;71.28
21566;BME280;10943;48.738;9.320;2022-11-22T04:58:20;96975.00;;;8.84;70.75
21566;BME280;10943;48.738;9.320;2022-11-22T05:00:48;96979.72;;;8.73;70.83
21566;BME280;10943;48.738;9.320;2022-11-22T05:03:16;96979.16;;;9.07;69.13
21566;BME280;10943;48.738;9.320;2022-11-22T05:05:50;96985.25;;;9.04;69.64
21566;BME280;10943;48.738;9.320;2022-11-22T05:08:17;96982.72;;;9.34;68.50
21566;BME280;10943;48.738;9.320;2022-11-22T05:10:47;96980.25;;;9.01;68.89
21566;BME280;10943;48.738;9.320;2022-11-22T05:13:26;96984.97;;;8.80;69.55
21566;BME280;10943;48.738;9.320;2022-11-22T05:15:57;96993.53;;;8.63;69.70
21566;BME280;10943;48.738;9.320;2022-11-22T05:18:25;97000.97;;;8.47;70.70
21566;BME280;10943;48.738;9.320;2022-11-22T05:20:54;97007.63;;;8.77;69.59
21566;BME280;10943;48.738;9.320;2022-11-22T05:23:23;97007.06;;;9.21;67.33
21566;BME280;10943;48.738;9.320;2022-11-22T05:26:10;97006.81;;;9.07;68.25
21566;BME280;10943;48.738;9.320;2022-11-22T05:28:38;97022.81;;;8.69;70.27
21566;BME280;10943;48.738;9.320;2022-11-22T05:31:15;97016.06;;;8.29;71.76
21566;BME280;10943;48.738;9.320;2022-11-22T05:33:44;97019.88;;;8.13;71.34
21566;BME280;10943;48.738;9.320;2022-11-22T05:36:12;97018.84;;;8.34;71.38
21566;BME280;10943;48.738;9.320;2022-11-22T05:38:40;97021.06;;;8.37;70.81
21566;BME280;10943;48.738;9.320;2022-11-22T05:41:10;97027.41;;;8.38;70.42
21566;BME280;10943;48.738;9.320;2022-11-22T05:43:42;97022.34;;;8.14;70.67
21566;BME280;10943;48.738;9.320;2022-11-22T05:46:14;97027.38;;;8.27;71.58
21566;BME280;10943;48.738;9.320;2022-11-22T05:48:50;97024.59;;;8.22;71.47
21566;BME280;10943;48.738;9.320;2022-11-22T05:51:21;97029.03;;;8.34;71.95
21566;BME280;10943;48.738;9.320;2022-11-22T05:54:01;97028.38;;;8.90;69.81
21566;BME280;10943;48.738;9.320;2022-11-22T05:56:29;97023.06;;;8.63;70.18
21566;BME280;10943;48.738;9.320;2022-11-22T05:58:56;97023.56;;;8.44;70.85
21566;BME280;10943;48.738;9.320;2022-11-22T06:01:24;97036.84;;;8.57;71.41
21566;BME280;10943;48.738;9.320;2022-11-22T06:03:52;97031.66;;;8.71;70.94
21566;BME280;10943;48.738;9.320;2022-11-22T06:06:20;97029.13;;;8.59;71.31
21566;BME280;10943;48.738;9.320;2022-11-22T06:08:50;97040.78;;;8.77;71.26
21566;BME280;10943;48.738;9.320;2022-11-22T06:11:42;97048.53;;;8.85;70.91
21566;BME280;10943;48.738;9.320;2022-11-22T06:14:09;97038.56;;;8.89;70.43
21566;BME280;10943;48.738;9.320;2022-11-22T06:16:36;97048.81;;;9.10;69.33
21566;BME280;10943;48.738;9.320;2022-11-22T06:19:04;97057.09;;;8.84;69.86
21566;BME280;10943;48.738;9.320;2022-11-22T06:21:34;97054.31;;;8.68;70.21
21566;BME280;10943;48.738;9.320;2022-11-22T06:24:01;97060.97;;;8.93;69.08
21566;BME280;10943;48.738;9.320;2022-11-22T06:26:31;97068.72;;;9.22;67.78
21566;BME280;10943;48.738;9.320;2022-11-22T06:29:07;97071.78;;;9.36;66.53
21566;BME280;10943;48.738;9.320;2022-11-22T06:31:35;97068.69;;;8.91;68.77
21566;BME280;10943;48.738;9.320;2022-11-22T06:34:03;97072.25;;;8.66;70.04
21566;BME280;10943;48.738;9.320;2022-11-22T06:36:33;97069.81;;;8.80;70.10
21566;BME280;10943;48.738;9.320;2022-11-22T06:39:01;97074.22;;;8.86;70.04
21566;BME280;10943;48.738;9.320;2022-11-22T06:41:35;97083.63;;;8.80;69.82
21566;BME280;10943;48.738;9.320;2022-11-22T06:44:06;97085.84;;;8.88;69.18
21566;BME280;10943;48.738;9.320;2022-11-22T06:46:35;97096.22;;;8.55;70.43
21566;BME280;10943;48.738;9.320;2022-11-22T06:49:03;97105.66;;;8.54;70.49
21566;BME280;10943;48.738;9.320;2022-11-22T06:51:31;97105.44;;;8.81;69.51
21566;BME280;10943;48.738;9.320;2022-11-22T06:53:59;97115.09;;;8.79;69.92
21566;BME280;10943;48.738;9.320;2022-11-22T06:56:30;97128.31;;;8.61;70.50
21566;BME280;10943;48.738;9.320;2022-11-22T06:59:02;97137.47;;;8.72;69.52
21566;BME280;10943;48.738;9.320;2022-11-22T07:01:33;97146.34;;;8.26;71.13
21566;BME280;10943;48.738;9.320;2022-11-22T07:04:02;97158.38;;;8.47;71.16
21566;BME280;10943;48.738;9.320;2022-11-22T07:06:34;97151.09;;;9.04;68.49
21566;BME280;10943;48.738;9.320;2022-11-22T07:09:07;97156.06;;;9.13;68.00
21566;BME280;10943;48.738;9.320;2022-11-22T07:11:36;97158.03;;;9.22;68.04
21566;BME280;10943;48.738;9.320;2022-11-22T07:14:05;97163.53;;;9.07;69.63
21566;BME280;10943;48.738;9.320;2022-11-22T07:16:37;97160.91;;;8.59;70.10
21566;BME280;10943;48.738;9.320;2022-11-22T07:19:06;97160.22;;;8.41;71.65
21566;BME280;10943;48.738;9.320;2022-11-22T07:21:34;97164.25;;;8.71;71.67
21566;BME280;10943;48.738;9.320;2022-11-22T07:24:05;97169.84;;;8.92;70.70
21566;BME280;10943;48.738;9.320;2022-11-22T07:26:33;97174.84;;;9.05;70.88
21566;BME280;10943;48.738;9.320;2022-11-22T07:29:01;97176.00;;;9.10;70.17
21566;BME280;10943;48.738;9.320;2022-11-22T07:31:28;97178.19;;;9.13;70.29
21566;BME280;10943;48.738;9.320;2022-11-22T07:33:59;97182.09;;;9.32;70.17
21566;BME280;10943;48.738;9.320;2022-11-22T07:36:27;97182.94;;;9.38;70.22
21566;BME280;10943;48.738;9.320;2022-11-22T07:38:56;97187.31;;;9.23;69.44
21566;BME280;10943;48.738;9.320;2022-11-22T07:41:25;97191.22;;;9.22;71.02
21566;BME280;10943;48.738;9.320;2022-11-22T07:43:53;97194.31;;;9.67;69.61
21566;BME280;10943;48.738;9.320;2022-11-22T07:46:26;97194.59;;;9.66;69.24
21566;BME280;10943;48.738;9.320;2022-11-22T07:49:00;97194.88;;;9.69;70.01
21566;BME280;10943;48.738;9.320;2022-11-22T07:51:29;97203.16;;;9.74;70.23
21566;BME280;10943;48.738;9.320;2022-11-22T07:53:56;97199.84;;;9.88;70.15
21566;BME280;10943;48.738;9.320;2022-11-22T07:56:24;97197.88;;;10.04;70.08
21566;BME280;10943;48.738;9.320;2022-11-22T07:58:52;97199.25;;;10.17;69.29
21566;BME280;10943;48.738;9.320;2022-11-22T08:01:20;97195.06;;;10.30;68.79
21566;BME280;10943;48.738;9.320;2022-11-22T08:03:49;97198.72;;;10.20;68.74
21566;BME280;10943;48.738;9.320;2022-11-22T08:06:16;97204.25;;;10.10;69.07
21566;BME280;10943;48.738;9.320;2022-11-22T08:08:44;97202.00;;;10.22;69.05
21566;BME280;10943;48.738;9.320;2022-11-22T08:11:11;97203.69;;;10.18;68.00
21566;BME280;10943;48.738;9.320;2022-11-22T08:13:40;97189.00;;;10.22;67.81
21566;BME280;10943;48.738;9.320;2022-11-22T08:16:12;97205.06;;;10.26;67.83
21566;BME280;10943;48.738;9.320;2022-11-22T08:18:46;97205.88;;;10.31;68.30
21566;BME280;10943;48.738;9.320;2022-11-22T08:21:17;97211.97;;;10.49;67.68
21566;BME280;10943;48.738;9.320;2022-11-22T08:23:47;97210.28;;;10.58;67.15
21566;BME280;10943;48.738;9.320;2022-11-22T08:26:16;97196.44;;;10.58;67.71
21566;BME280;10943;48.738;9.320;2022-11-22T08:28:45;97206.97;;;10.56;66.85
21566;BME280;10943;48.738;9.320;2022-11-22T08:31:15;97203.06;;;10.62;66.82
21566;BME280;10943;48.738;9.320;2022-11-22T08:33:47;97204.22;;;11.16;64.63
21566;BME280;10943;48.738;9.320;2022-11-22T08:36:19;97198.41;;;11.13;63.55
21566;BME280;10943;48.738;9.320;2022-11-22T08:38:46;97192.38;;;11.00;63.75
21566;BME280;10943;48.738;9.320;2022-11-22T08:41:14;97192.84;;;11.13;63.24
21566;BME280;10943;48.738;9.320;2022-11-22T08:43:41;97185.84;;;11.26;62.92
21566;BME280;10943;48.738;9.320;2022-11-22T08:46:09;97187.78;;;11.30;64.32
21566;BME280;10943;48.738;9.320;2022-11-22T08:48:37;97182.31;;;11.54;62.97
21566;BME280;10943;48.738;9.320;2022-11-22T08:51:08;97182.44;;;11.79;62.94
21566;BME280;10943;48.738;9.320;2022-11-22T08:53:40;97174.31;;;11.87;61.70
21566;BME280;10943;48.738;9.320;2022-11-22T08:56:36;97179.72;;;12.08;61.77
21566;BME280;10943;48.738;9.320;2022-11-22T08:59:04;97173.72;;;12.25;61.46
21566;BME280;10943;48.738;9.320;2022-11-22T09:01:32;97175.16;;;12.47;60.75
21566;BME280;10943;48.738;9.320;2022-11-22T09:04:00;97180.47;;;12.67;59.69
21566;BME280;10943;48.738;9.320;2022-11-22T09:06:27;97169.06;;;12.69;59.28
21566;BME280;10943;48.738;9.320;2022-11-22T09:09:15;97173.47;;;12.70;59.19
21566;BME280;10943;48.738;9.320;2022-11-22T09:12:03;97180.00;;;12.84;60.01
21566;BME280;10943;48.738;9.320;2022-11-22T09:14:31;97179.44;;;13.07;58.48
21566;BME280;10943;48.738;9.320;2022-11-22T09:16:59;97174.16;;;13.05;56.81
21566;BME280;10943;48.738;9.320;2022-11-22T09:19:26;97180.72;;;13.14;56.96
21566;BME280;10943;48.738;9.320;2022-11-22T09:21:54;97179.44;;;13.26;57.39
21566;BME280;10943;48.738;9.320;2022-11-22T09:24:21;97179.50;;;13.20;55.88
21566;BME280;10943;48.738;9.320;2022-11-22T09:26:49;97191.00;;;12.95;55.88
21566;BME280;10943;48.738;9.320;2022-11-22T09:29:16;97197.50;;;13.28;55.99
21566;BME280;10943;48.738;9.320;2022-11-22T09:31:43;97201.84;;;13.15;55.20
21566;BME280;10943;48.738;9.320;2022-11-22T09:34:11;97200.84;;;13.06;55.26
21566;BME280;10943;48.738;9.320;2022-11-22T09:36:38;97211.53;;;12.99;56.50
21566;BME280;10943;48.738;9.320;2022-11-22T09:39:07;97224.72;;;13.36;56.13
21566;BME280;10943;48.738;9.320;2022-11-22T09:42:15;97230.72;;;13.44;54.79
21566;BME280;10943;48.738;9.320;2022-11-22T09:51:20;97233.66;;;13.28;55.59
21566;BME280;10943;48.738;9.320;2022-11-22T09:53:59;97239.69;;;13.41;55.41
21566;BME280;10943;48.738;9.320;2022-11-22T09:56:32;97230.81;;;13.33;55.15
21566;BME280;10943;48.738;9.320;2022-11-22T09:59:24;97236.75;;;13.51;54.47
21566;BME280;10943;48.738;9.320;2022-11-22T10:02:16;97242.25;;;13.56;54.38
21566;BME280;10943;48.738;9.320;2022-11-22T10:05:02;97242.91;;;13.86;53.65
21566;BME280;10943;48.738;9.320;2022-11-22T10:07:56;97255.19;;;14.04;51.47
21566;BME280;10943;48.738;9.320;2022-11-22T10:10:39;97253.38;;;13.94;51.95
21566;BME280;10943;48.738;9.320;2022-11-22T10:13:38;97253.00;;;13.82;51.85
21566;BME280;10943;48.738;9.320;2022-11-22T10:22:29;97253.03;;;14.15;49.00
21566;BME280;10943;48.738;9.320;2022-11-22T10:25:02;97260.34;;;14.11;49.15
21566;BME280;10943;48.738;9.320;2022-11-22T10:27:32;97267.13;;;14.05;48.65
21566;BME280;10943;48.738;9.320;2022-11-22T10:30:10;97261.94;;;13.79;49.80
21566;BME280;10943;48.738;9.320;2022-11-22T10:36:20;97257.03;;;14.09;48.70
21566;BME280;10943;48.738;9.320;2022-11-22T10:45:45;97272.22;;;14.35;46.19
21566;BME280;10943;48.738;9.320;2022-11-22T10:54:25;97265.47;;;14.03;45.80
21566;BME280;10943;48.738;9.320;2022-11-22T11:03:42;97270.31;;;14.31;46.40
21566;BME280;10943;48.738;9.320;2022-11-22T11:06:22;97272.75;;;14.71;45.56
21566;BME280;10943;48.738;9.320;2022-11-22T11:12:45;97262.78;;;14.50;44.99
21566;BME280;10943;48.738;9.320;2022-11-22T11:15:34;97266.81;;;15.05;43.32
21566;BME280;10943;48.738;9.320;2022-11-22T11:21:06;97267.09;;;14.90;44.34
21566;BME280;10943;48.738;9.320;2022-11-22T11:23:34;97248.56;;;15.35;43.65
21566;BME280;10943;48.738;9.320;2022-11-22T11:26:31;97249.44;;;15.22;42.83
21566;BME280;10943;48.738;9.320;2022-11-22T11:31:48;97232.97;;;15.85;41.04
21566;BME280;10943;48.738;9.320;2022-11-22T11:34:25;97237.50;;;15.95;40.79
21566;BME280;10943;48.738;9.320;2022-11-22T11:36:56;97249.94;;;15.75;41.61
21566;BME280;10943;48.738;9.320;2022-11-22T11:39:30;97239.22;;;15.68;40.94
21566;BME280;10943;48.738;9.320;2022-11-22T11:41:59;97243.78;;;15.64;41.67
21566;BME280;10943;48.738;9.320;2022-11-22T11:44:34;97240.88;;;15.55;40.88
21566;BME280;10943;48.738;9.320;2022-11-22T11:47:03;97235.28;;;16.06;40.39
21566;BME280;10943;48.738;9.320;2022-11-22T11:49:33;97228.88;;;15.68;41.25
21566;BME280;10943;48.738;9.320;2022-11-22T11:52:04;97224.75;;;15.66;41.07
21566;BME280;10943;48.738;9.320;2022-11-22T11:57:23;97216.03;;;15.67;41.04
21566;BME280;10943;48.738;9.320;2022-11-22T11:59:58;97206.00;;;15.66;39.86
21566;BME280;10943;48.738;9.320;2022-11-22T12:02:41;97207.81;;;15.85;40.29
21566;BME280;10943;48.738;9.320;2022-11-22T12:07:43;97195.69;;;16.66;38.00
21566;BME280;10943;48.738;9.320;2022-11-22T12:10:46;97193.56;;;16.41;38.63
21566;BME280;10943;48.738;9.320;2022-11-22T12:16:31;97189.75;;;16.91;37.70
21566;BME280;10943;48.738;9.320;2022-11-22T12:19:20;97187.28;;;16.66;37.94
21566;BME280;10943;48.738;9.320;2022-11-22T12:22:33;97179.63;;;16.18;38.67
21566;BME280;10943;48.738;9.320;2022-11-22T12:28:32;97171.38;;;16.13;38.14
21566;BME280;10943;48.738;9.320;2022-11-22T12:34:25;97168.53;;;16.67;37.72
21566;BME280;10943;48.738;9.320;2022-11-22T12:39:39;97163.63;;;16.73;36.80
21566;BME280;10943;48.738;9.320;2022-11-22T12:42:48;97172.56;;;15.75;38.22
21566;BME280;10943;48.738;9.320;2022-11-22T12:45:35;97175.03;;;15.77;38.53
21566;BME280;10943;48.738;9.320;2022-11-22T12:48:15;97165.94;;;16.39;37.49
21566;BME280;10943;48.738;9.320;2022-11-22T12:50:53;97156.28;;;16.45;37.22
21566;BME280;10943;48.738;9.320;2022-11-22T12:53:40;97158.94;;;16.19;38.15
21566;BME280;10943;48.738;9.320;2022-11-22T12:56:28;97153.38;;;16.28;37.41
21566;BME280;10943;48.738;9.320;2022-11-22T12:59:36;97156.88;;;16.11;37.31
21566;BME280;10943;48.738;9.320;2022-11-22T13:02:28;97167.19;;;15.79;38.73
21566;BME280;10943;48.738;9.320;2022-11-22T13:05:12;97150.25;;;15.61;38.75
21566;BME280;10943;48.738;9.320;2022-11-22T13:14:24;97152.63;;;16.13;37.89
21566;BME280;10943;48.738;9.320;2022-11-22T13:17:14;97146.75;;;16.55;36.61
21566;BME280;10943;48.738;9.320;2022-11-22T13:27:39;97157.25;;;15.73;37.69
21566;BME280;10943;48.738;9.320;2022-11-22T13:30:27;97157.25;;;15.73;38.39
21566;BME280;10943;48.738;9.320;2022-11-22T13:33:24;97156.41;;;15.86;37.62
21566;BME280;10943;48.738;9.320;2022-11-22T13:36:50;97163.00;;;15.90;37.68
21566;BME280;10943;48.738;9.320;2022-11-22T13:39:49;97158.31;;;15.40;38.09
21566;BME280;10943;48.738;9.320;2022-11-22T13:42:33;97164.47;;;15.51;38.47
21566;BME280;10943;48.738;9.320;2022-11-22T13:45:23;97170.25;;;15.18;38.59
21566;BME280;10943;48.738;9.320;2022-11-22T13:48:03;97163.97;;;14.71;39.03
21566;BME280;10943;48.738;9.320;2022-11-22T13:53:32;97169.66;;;14.65;39.74
21566;BME280;10943;48.738;9.320;2022-11-22T13:59:19;97173.56;;;14.64;41.07
21566;BME280;10943;48.738;9.320;2022-11-22T14:02:29;97183.91;;;14.78;39.84
21566;BME280;10943;48.738;9.320;2022-11-22T14:08:40;97189.13;;;14.05;41.17
21566;BME280;10943;48.738;9.320;2022-11-22T14:12:11;97189.88;;;14.71;39.29
21566;BME280;10943;48.738;9.320;2022-11-22T14:31:32;97165.00;;;13.81;41.23
21566;BME280;10943;48.738;9.320;2022-11-22T14:34:24;97175.56;;;13.65;41.08
21566;BME280;10943;48.738;9.320;2022-11-22T14:45:59;97191.50;;;13.78;41.05
21566;BME280;10943;48.738;9.320;2022-11-22T14:49:52;97196.63;;;13.71;41.31
21566;BME280;10943;48.738;9.320;2022-11-22T14:52:29;97189.63;;;13.35;43.33
21566;BME280;10943;48.738;9.320;2022-11-22T14:55:16;97193.09;;;13.65;42.27
21566;BME280;10943;48.738;9.320;2022-11-22T14:58:11;97194.22;;;13.64;42.31
21566;BME280;10943;48.738;9.320;2022-11-22T15:01:20;97194.91;;;13.56;42.00
21566;BME280;10943;48.738;9.320;2022-11-22T15:04:55;97202.81;;;13.49;42.46
21566;BME280;10943;48.738;9.320;2022-11-22T15:18:37;97218.41;;;12.82;44.13
21566;BME280;10943;48.738;9.320;2022-11-22T15:21:35;97210.28;;;12.62;45.59
21566;BME280;10943;48.738;9.320;2022-11-22T15:24:40;97218.16;;;12.79;43.97
21566;BME280;10943;48.738;9.320;2022-11-22T15:27:32;97208.09;;;12.83;43.61
21566;BME280;10943;48.738;9.320;2022-11-22T15:30:30;97210.75;;;12.45;45.04
21566;BME280;10943;48.738;9.320;2022-11-22T15:33:22;97211.66;;;12.35;45.72
21566;BME280;10943;48.738;9.320;2022-11-22T15:39:27;97210.63;;;12.55;44.88
21566;BME280;10943;48.738;9.320;2022-11-22T15:42:23;97222.75;;;12.11;46.71
21566;BME280;10943;48.738;9.320;2022-11-22T15:45:26;97238.94;;;12.33;45.31
21566;BME280;10943;48.738;9.320;2022-11-22T15:48:38;97239.44;;;12.35;45.62
21566;BME280;10943;48.738;9.320;2022-11-22T15:51:49;97237.13;;;12.18;45.61
21566;BME280;10943;48.738;9.320;2022-11-22T15:54:54;97244.69;;;12.42;45.21